sensor_id;sensor_type;location;lat;lon;timestamp;P1;durP1;ratioP1;P2;durP2;ratioP2
39674;SDS011;27790;50.840;4.386;2022-10-16T01:31:04;12.55;;;8.23;;
39674;SDS011;27790;50.840;4.386;2022-10-16T01:33:39;5.13;;;3.40;;
39674;SDS011;27790;50.840;4.386;2022-10-16T01:36:15;9.77;;;5.80;;
39674;SDS011;27790;50.840;4.386;2022-10-16T01:38:46;26.73;;;18.35;;
39674;SDS011;27790;50.840;4.386;2022-10-16T01:41:23;49.38;;;28.00;;
39674;SDS011;27790;50.840;4.386;2022-10-16T01:46:30;11.80;;;9.40;;
39674;SDS011;27790;50.840;4.386;2022-10-16T01:48:56;11.13;;;6.00;;
39674;SDS011;27790;50.840;4.386;2022-10-16T01:51:24;20.92;;;10.52;;
39674;SDS011;27790;50.840;4.386;2022-10-16T01:53:52;13.40;;;7.13;;
39674;SDS011;27790;50.840;4.386;2022-10-16T01:56:20;11.32;;;8.35;;
39674;SDS011;27790;50.840;4.386;2022-10-16T01:58:53;6.53;;;3.47;;
39674;SDS011;27790;50.840;4.386;2022-10-16T02:01:26;2.45;;;2.17;;
39674;SDS011;27790;50.840;4.386;2022-10-16T02:03:55;6.03;;;3.28;;
39674;SDS011;27790;50.840;4.386;2022-10-16T02:06:24;5.63;;;5.10;;
39674;SDS011;27790;50.840;4.386;2022-10-16T02:08:50;6.32;;;3.10;;
39674;SDS011;27790;50.840;4.386;2022-10-16T02:11:16;3.75;;;2.78;;
39674;SDS011;27790;50.840;4.386;2022-10-16T02:13:46;3.35;;;1.20;;
39674;SDS011;27790;50.840;4.386;2022-10-16T02:16:16;2.30;;;2.05;;
39674;SDS011;27790;50.840;4.386;2022-10-16T02:18:42;1.70;;;1.52;;
39674;SDS011;27790;50.840;4.386;2022-10-16T02:29:12;2.90;;;1.45;;
39674;SDS011;27790;50.840;4.386;2022-10-16T02:31:41;3.20;;;1.67;;
39674;SDS011;27790;50.840;4.386;2022-10-16T02:34:12;2.75;;;2.55;;
39674;SDS011;27790;50.840;4.386;2022-10-16T02:36:40;3.00;;;2.80;;
39674;SDS011;27790;50.840;4.386;2022-10-16T02:39:07;5.03;;;1.85;;
39674;SDS011;27790;50.840;4.386;2022-10-16T02:41:33;8.98;;;2.28;;
39674;SDS011;27790;50.840;4.386;2022-10-16T02:43:59;3.33;;;1.58;;
39674;SDS011;27790;50.840;4.386;2022-10-16T02:46:24;1.77;;;1.67;;
39674;SDS011;27790;50.840;4.386;2022-10-16T02:48:50;4.40;;;4.10;;
39674;SDS011;27790;50.840;4.386;2022-10-16T02:51:15;7.60;;;5.00;;
39674;SDS011;27790;50.840;4.386;2022-10-16T02:53:41;5.20;;;2.00;;
39674;SDS011;27790;50.840;4.386;2022-10-16T02:56:06;3.63;;;3.33;;
39674;SDS011;27790;50.840;4.386;2022-10-16T02:58:32;2.25;;;1.40;;
39674;SDS011;27790;50.840;4.386;2022-10-16T03:00:57;1.65;;;1.42;;
39674;SDS011;27790;50.840;4.386;2022-10-16T03:03:23;2.30;;;1.88;;
39674;SDS011;27790;50.840;4.386;2022-10-16T03:05:49;4.50;;;1.85;;
39674;SDS011;27790;50.840;4.386;2022-10-16T03:08:14;1.50;;;1.40;;
39674;SDS011;27790;50.840;4.386;2022-10-16T03:10:40;3.72;;;2.85;;
39674;SDS011;27790;50.840;4.386;2022-10-16T03:13:06;5.20;;;1.88;;
39674;SDS011;27790;50.840;4.386;2022-10-16T03:15:31;6.10;;;3.92;;
39674;SDS011;27790;50.840;4.386;2022-10-16T03:17:57;2.80;;;1.77;;
39674;SDS011;27790;50.840;4.386;2022-10-16T03:20:23;10.82;;;2.45;;
39674;SDS011;27790;50.840;4.386;2022-10-16T03:22:49;5.63;;;1.50;;
39674;SDS011;27790;50.840;4.386;2022-10-16T03:25:15;2.50;;;1.45;;
39674;SDS011;27790;50.840;4.386;2022-10-16T03:27:40;3.88;;;1.85;;
39674;SDS011;27790;50.840;4.386;2022-10-16T03:30:06;8.50;;;3.75;;
39674;SDS011;27790;50.840;4.386;2022-10-16T03:32:32;3.30;;;2.40;;
39674;SDS011;27790;50.840;4.386;2022-10-16T03:34:58;2.63;;;1.90;;
39674;SDS011;27790;50.840;4.386;2022-10-16T03:37:23;4.20;;;2.55;;
39674;SDS011;27790;50.840;4.386;2022-10-16T03:39:49;3.60;;;1.77;;
39674;SDS011;27790;50.840;4.386;2022-10-16T03:42:14;3.50;;;2.25;;
39674;SDS011;27790;50.840;4.386;2022-10-16T03:44:40;2.30;;;1.45;;
39674;SDS011;27790;50.840;4.386;2022-10-16T03:47:06;4.05;;;3.65;;
39674;SDS011;27790;50.840;4.386;2022-10-16T03:49:31;2.60;;;1.23;;
39674;SDS011;27790;50.840;4.386;2022-10-16T03:51:57;2.20;;;1.60;;
39674;SDS011;27790;50.840;4.386;2022-10-16T03:54:22;5.95;;;3.08;;
39674;SDS011;27790;50.840;4.386;2022-10-16T03:56:48;4.68;;;1.73;;
39674;SDS011;27790;50.840;4.386;2022-10-16T03:59:13;6.07;;;2.20;;
39674;SDS011;27790;50.840;4.386;2022-10-16T04:01:39;1.88;;;1.25;;
39674;SDS011;27790;50.840;4.386;2022-10-16T04:04:05;3.50;;;1.45;;
39674;SDS011;27790;50.840;4.386;2022-10-16T04:06:31;5.57;;;1.77;;
39674;SDS011;27790;50.840;4.386;2022-10-16T04:08:56;5.38;;;2.25;;
39674;SDS011;27790;50.840;4.386;2022-10-16T04:11:22;1.83;;;1.70;;
39674;SDS011;27790;50.840;4.386;2022-10-16T04:13:47;2.90;;;1.75;;
39674;SDS011;27790;50.840;4.386;2022-10-16T04:16:13;6.55;;;3.67;;
39674;SDS011;27790;50.840;4.386;2022-10-16T04:18:39;5.38;;;2.00;;
39674;SDS011;27790;50.840;4.386;2022-10-16T04:21:05;5.07;;;2.92;;
39674;SDS011;27790;50.840;4.386;2022-10-16T04:23:31;3.05;;;2.75;;
39674;SDS011;27790;50.840;4.386;2022-10-16T04:25:57;3.70;;;1.73;;
39674;SDS011;27790;50.840;4.386;2022-10-16T04:28:24;2.10;;;1.17;;
39674;SDS011;27790;50.840;4.386;2022-10-16T04:30:49;2.33;;;2.13;;
39674;SDS011;27790;50.840;4.386;2022-10-16T04:33:15;3.35;;;2.40;;
39674;SDS011;27790;50.840;4.386;2022-10-16T04:35:41;3.63;;;1.40;;
39674;SDS011;27790;50.840;4.386;2022-10-16T04:38:06;1.73;;;1.38;;
39674;SDS011;27790;50.840;4.386;2022-10-16T04:40:32;2.97;;;1.90;;
39674;SDS011;27790;50.840;4.386;2022-10-16T04:42:58;8.10;;;1.90;;
39674;SDS011;27790;50.840;4.386;2022-10-16T04:45:24;3.35;;;2.60;;
39674;SDS011;27790;50.840;4.386;2022-10-16T04:47:50;3.88;;;1.35;;
39674;SDS011;27790;50.840;4.386;2022-10-16T04:50:15;4.22;;;1.50;;
39674;SDS011;27790;50.840;4.386;2022-10-16T04:52:41;2.75;;;2.53;;
39674;SDS011;27790;50.840;4.386;2022-10-16T04:55:06;12.40;;;3.50;;
39674;SDS011;27790;50.840;4.386;2022-10-16T04:57:32;2.92;;;1.40;;
39674;SDS011;27790;50.840;4.386;2022-10-16T04:59:58;5.55;;;2.55;;
39674;SDS011;27790;50.840;4.386;2022-10-16T05:02:24;12.23;;;2.15;;
39674;SDS011;27790;50.840;4.386;2022-10-16T05:04:50;3.70;;;3.35;;
39674;SDS011;27790;50.840;4.386;2022-10-16T05:07:16;4.28;;;2.30;;
39674;SDS011;27790;50.840;4.386;2022-10-16T05:09:41;5.40;;;1.80;;
39674;SDS011;27790;50.840;4.386;2022-10-16T05:12:07;3.85;;;2.50;;
39674;SDS011;27790;50.840;4.386;2022-10-16T05:14:32;5.15;;;2.08;;
39674;SDS011;27790;50.840;4.386;2022-10-16T05:16:59;3.00;;;2.33;;
39674;SDS011;27790;50.840;4.386;2022-10-16T05:19:25;4.57;;;1.73;;
39674;SDS011;27790;50.840;4.386;2022-10-16T05:21:51;4.65;;;2.35;;
39674;SDS011;27790;50.840;4.386;2022-10-16T05:24:16;4.35;;;3.00;;
39674;SDS011;27790;50.840;4.386;2022-10-16T05:26:42;7.03;;;2.10;;
39674;SDS011;27790;50.840;4.386;2022-10-16T05:29:08;3.80;;;2.60;;
39674;SDS011;27790;50.840;4.386;2022-10-16T05:31:34;5.35;;;3.72;;
39674;SDS011;27790;50.840;4.386;2022-10-16T05:34:00;3.78;;;1.77;;
39674;SDS011;27790;50.840;4.386;2022-10-16T05:36:25;5.85;;;2.40;;
39674;SDS011;27790;50.840;4.386;2022-10-16T05:38:51;4.22;;;2.47;;
39674;SDS011;27790;50.840;4.386;2022-10-16T05:41:17;6.88;;;2.72;;
39674;SDS011;27790;50.840;4.386;2022-10-16T05:43:46;2.58;;;1.85;;
39674;SDS011;27790;50.840;4.386;2022-10-16T05:46:13;4.28;;;2.10;;
39674;SDS011;27790;50.840;4.386;2022-10-16T05:48:38;4.55;;;3.67;;
39674;SDS011;27790;50.840;4.386;2022-10-16T05:51:05;4.90;;;2.65;;
39674;SDS011;27790;50.840;4.386;2022-10-16T05:53:33;9.15;;;8.15;;
39674;SDS011;27790;50.840;4.386;2022-10-16T05:56:00;6.30;;;4.65;;
39674;SDS011;27790;50.840;4.386;2022-10-16T05:58:30;13.48;;;12.00;;
39674;SDS011;27790;50.840;4.386;2022-10-16T06:01:01;5.82;;;2.75;;
39674;SDS011;27790;50.840;4.386;2022-10-16T06:03:28;3.13;;;2.00;;
39674;SDS011;27790;50.840;4.386;2022-10-16T06:05:54;3.05;;;2.13;;
39674;SDS011;27790;50.840;4.386;2022-10-16T06:08:21;7.68;;;5.43;;
39674;SDS011;27790;50.840;4.386;2022-10-16T06:10:47;7.93;;;2.47;;
39674;SDS011;27790;50.840;4.386;2022-10-16T06:13:14;11.63;;;10.50;;
39674;SDS011;27790;50.840;4.386;2022-10-16T06:15:40;2.72;;;1.80;;
39674;SDS011;27790;50.840;4.386;2022-10-16T06:18:10;12.80;;;5.65;;
39674;SDS011;27790;50.840;4.386;2022-10-16T06:20:36;3.25;;;2.35;;
39674;SDS011;27790;50.840;4.386;2022-10-16T06:23:02;7.65;;;7.05;;
39674;SDS011;27790;50.840;4.386;2022-10-16T06:25:29;1.77;;;1.65;;
39674;SDS011;27790;50.840;4.386;2022-10-16T06:27:55;4.50;;;4.07;;
39674;SDS011;27790;50.840;4.386;2022-10-16T06:30:21;8.25;;;2.83;;
39674;SDS011;27790;50.840;4.386;2022-10-16T06:32:46;5.22;;;3.67;;
39674;SDS011;27790;50.840;4.386;2022-10-16T06:35:12;5.70;;;1.95;;
39674;SDS011;27790;50.840;4.386;2022-10-16T06:37:38;3.15;;;2.17;;
39674;SDS011;27790;50.840;4.386;2022-10-16T06:40:03;9.82;;;6.05;;
39674;SDS011;27790;50.840;4.386;2022-10-16T06:42:29;3.03;;;2.08;;
39674;SDS011;27790;50.840;4.386;2022-10-16T06:44:55;4.25;;;1.83;;
39674;SDS011;27790;50.840;4.386;2022-10-16T06:47:21;2.35;;;2.08;;
39674;SDS011;27790;50.840;4.386;2022-10-16T06:49:46;10.27;;;2.95;;
39674;SDS011;27790;50.840;4.386;2022-10-16T06:52:12;3.03;;;1.95;;
39674;SDS011;27790;50.840;4.386;2022-10-16T06:54:38;5.47;;;2.17;;
39674;SDS011;27790;50.840;4.386;2022-10-16T06:57:03;4.65;;;3.67;;
39674;SDS011;27790;50.840;4.386;2022-10-16T06:59:29;4.32;;;1.63;;
39674;SDS011;27790;50.840;4.386;2022-10-16T07:01:54;2.65;;;1.90;;
39674;SDS011;27790;50.840;4.386;2022-10-16T07:04:20;6.70;;;2.00;;
39674;SDS011;27790;50.840;4.386;2022-10-16T07:06:45;11.85;;;2.17;;
39674;SDS011;27790;50.840;4.386;2022-10-16T07:09:11;3.92;;;1.40;;
39674;SDS011;27790;50.840;4.386;2022-10-16T07:11:38;7.70;;;2.03;;
39674;SDS011;27790;50.840;4.386;2022-10-16T07:14:04;4.50;;;1.40;;
39674;SDS011;27790;50.840;4.386;2022-10-16T07:16:33;7.72;;;1.92;;
39674;SDS011;27790;50.840;4.386;2022-10-16T07:19:00;3.40;;;1.70;;
39674;SDS011;27790;50.840;4.386;2022-10-16T07:21:27;5.43;;;2.03;;
39674;SDS011;27790;50.840;4.386;2022-10-16T07:23:59;5.32;;;2.00;;
39674;SDS011;27790;50.840;4.386;2022-10-16T07:26:26;7.05;;;2.13;;
39674;SDS011;27790;50.840;4.386;2022-10-16T07:28:55;2.97;;;1.50;;
39674;SDS011;27790;50.840;4.386;2022-10-16T07:31:21;6.85;;;1.67;;
39674;SDS011;27790;50.840;4.386;2022-10-16T07:33:48;6.15;;;2.10;;
39674;SDS011;27790;50.840;4.386;2022-10-16T07:36:15;5.32;;;2.08;;
39674;SDS011;27790;50.840;4.386;2022-10-16T07:38:42;6.22;;;1.90;;
39674;SDS011;27790;50.840;4.386;2022-10-16T07:41:12;4.63;;;1.80;;
39674;SDS011;27790;50.840;4.386;2022-10-16T07:43:39;3.30;;;1.65;;
39674;SDS011;27790;50.840;4.386;2022-10-16T07:46:05;2.92;;;1.98;;
39674;SDS011;27790;50.840;4.386;2022-10-16T07:48:31;5.25;;;1.38;;
39674;SDS011;27790;50.840;4.386;2022-10-16T07:50:58;3.70;;;1.70;;
39674;SDS011;27790;50.840;4.386;2022-10-16T07:53:25;4.70;;;1.38;;
39674;SDS011;27790;50.840;4.386;2022-10-16T07:55:51;8.20;;;1.83;;
39674;SDS011;27790;50.840;4.386;2022-10-16T07:58:21;2.08;;;1.40;;
39674;SDS011;27790;50.840;4.386;2022-10-16T08:00:47;2.45;;;1.70;;
39674;SDS011;27790;50.840;4.386;2022-10-16T08:03:12;2.97;;;1.90;;
39674;SDS011;27790;50.840;4.386;2022-10-16T08:05:38;2.33;;;1.23;;
39674;SDS011;27790;50.840;4.386;2022-10-16T08:08:03;7.10;;;1.58;;
39674;SDS011;27790;50.840;4.386;2022-10-16T08:10:29;5.68;;;1.55;;
39674;SDS011;27790;50.840;4.386;2022-10-16T08:12:55;6.43;;;1.52;;
39674;SDS011;27790;50.840;4.386;2022-10-16T08:15:20;3.90;;;1.70;;
39674;SDS011;27790;50.840;4.386;2022-10-16T08:20:24;5.47;;;1.48;;
39674;SDS011;27790;50.840;4.386;2022-10-16T08:22:50;4.45;;;1.30;;
39674;SDS011;27790;50.840;4.386;2022-10-16T08:25:16;4.72;;;1.83;;
39674;SDS011;27790;50.840;4.386;2022-10-16T08:27:41;2.88;;;1.20;;
39674;SDS011;27790;50.840;4.386;2022-10-16T08:30:07;4.72;;;1.23;;
39674;SDS011;27790;50.840;4.386;2022-10-16T08:32:33;3.80;;;1.52;;
39674;SDS011;27790;50.840;4.386;2022-10-16T08:34:59;3.28;;;1.42;;
39674;SDS011;27790;50.840;4.386;2022-10-16T08:37:43;3.83;;;1.30;;
39674;SDS011;27790;50.840;4.386;2022-10-16T08:45:33;5.47;;;1.88;;
39674;SDS011;27790;50.840;4.386;2022-10-16T08:50:51;6.85;;;1.35;;
39674;SDS011;27790;50.840;4.386;2022-10-16T08:56:17;7.95;;;1.77;;
39674;SDS011;27790;50.840;4.386;2022-10-16T08:58:43;12.27;;;1.63;;
39674;SDS011;27790;50.840;4.386;2022-10-16T09:01:12;8.63;;;1.95;;
39674;SDS011;27790;50.840;4.386;2022-10-16T09:06:17;1.48;;;0.98;;
39674;SDS011;27790;50.840;4.386;2022-10-16T09:14:32;4.22;;;1.60;;
39674;SDS011;27790;50.840;4.386;2022-10-16T09:22:37;6.82;;;1.10;;
39674;SDS011;27790;50.840;4.386;2022-10-16T09:27:42;1.65;;;1.17;;
39674;SDS011;27790;50.840;4.386;2022-10-16T09:30:12;5.07;;;1.15;;
39674;SDS011;27790;50.840;4.386;2022-10-16T09:32:39;3.83;;;1.20;;
39674;SDS011;27790;50.840;4.386;2022-10-16T09:35:09;5.38;;;1.40;;
39674;SDS011;27790;50.840;4.386;2022-10-16T09:37:38;5.27;;;1.50;;
39674;SDS011;27790;50.840;4.386;2022-10-16T09:40:11;7.90;;;2.58;;
39674;SDS011;27790;50.840;4.386;2022-10-16T09:42:48;9.38;;;1.95;;
39674;SDS011;27790;50.840;4.386;2022-10-16T09:45:20;3.70;;;1.35;;
39674;SDS011;27790;50.840;4.386;2022-10-16T09:47:48;5.18;;;1.20;;
39674;SDS011;27790;50.840;4.386;2022-10-16T09:50:24;5.60;;;1.45;;
39674;SDS011;27790;50.840;4.386;2022-10-16T09:53:02;7.68;;;2.35;;
39674;SDS011;27790;50.840;4.386;2022-10-16T09:55:33;4.80;;;1.15;;
39674;SDS011;27790;50.840;4.386;2022-10-16T09:57:59;3.67;;;1.73;;
39674;SDS011;27790;50.840;4.386;2022-10-16T10:00:24;4.22;;;1.27;;
39674;SDS011;27790;50.840;4.386;2022-10-16T10:02:50;4.97;;;1.70;;
39674;SDS011;27790;50.840;4.386;2022-10-16T10:05:21;3.47;;;1.40;;
39674;SDS011;27790;50.840;4.386;2022-10-16T10:07:56;2.83;;;0.90;;
39674;SDS011;27790;50.840;4.386;2022-10-16T10:10:28;5.53;;;1.50;;
39674;SDS011;27790;50.840;4.386;2022-10-16T10:12:55;6.88;;;1.80;;
39674;SDS011;27790;50.840;4.386;2022-10-16T10:15:21;6.35;;;1.30;;
39674;SDS011;27790;50.840;4.386;2022-10-16T10:17:52;4.05;;;1.25;;
39674;SDS011;27790;50.840;4.386;2022-10-16T10:23:00;8.07;;;1.45;;
39674;SDS011;27790;50.840;4.386;2022-10-16T10:30:59;9.35;;;1.83;;
39674;SDS011;27790;50.840;4.386;2022-10-16T10:33:44;5.15;;;1.30;;
39674;SDS011;27790;50.840;4.386;2022-10-16T10:58:06;5.82;;;1.00;;
39674;SDS011;27790;50.840;4.386;2022-10-16T11:06:12;3.40;;;0.90;;
39674;SDS011;27790;50.840;4.386;2022-10-16T11:21:43;2.33;;;0.77;;
39674;SDS011;27790;50.840;4.386;2022-10-16T11:24:21;5.57;;;0.85;;
39674;SDS011;27790;50.840;4.386;2022-10-16T11:26:53;5.30;;;1.45;;
39674;SDS011;27790;50.840;4.386;2022-10-16T11:29:22;3.92;;;1.45;;
39674;SDS011;27790;50.840;4.386;2022-10-16T11:31:55;1.67;;;0.85;;
39674;SDS011;27790;50.840;4.386;2022-10-16T11:34:28;2.47;;;0.70;;
39674;SDS011;27790;50.840;4.386;2022-10-16T11:37:07;8.07;;;1.27;;
39674;SDS011;27790;50.840;4.386;2022-10-16T11:39:47;2.58;;;0.93;;
39674;SDS011;27790;50.840;4.386;2022-10-16T11:44:58;5.40;;;1.90;;
39674;SDS011;27790;50.840;4.386;2022-10-16T11:47:36;3.40;;;0.93;;
39674;SDS011;27790;50.840;4.386;2022-10-16T11:52:49;1.58;;;0.85;;
39674;SDS011;27790;50.840;4.386;2022-10-16T11:55:32;1.83;;;0.63;;
39674;SDS011;27790;50.840;4.386;2022-10-16T11:58:05;1.77;;;0.70;;
39674;SDS011;27790;50.840;4.386;2022-10-16T12:00:43;6.32;;;1.20;;
39674;SDS011;27790;50.840;4.386;2022-10-16T12:03:40;3.28;;;0.60;;
39674;SDS011;27790;50.840;4.386;2022-10-16T12:08:48;3.67;;;1.05;;
39674;SDS011;27790;50.840;4.386;2022-10-16T12:14:04;7.60;;;3.20;;
39674;SDS011;27790;50.840;4.386;2022-10-16T12:16:32;5.97;;;1.90;;
39674;SDS011;27790;50.840;4.386;2022-10-16T12:21:41;4.75;;;1.02;;
39674;SDS011;27790;50.840;4.386;2022-10-16T12:26:54;2.40;;;1.27;;
39674;SDS011;27790;50.840;4.386;2022-10-16T12:29:28;5.22;;;1.35;;
39674;SDS011;27790;50.840;4.386;2022-10-16T12:32:06;2.22;;;1.10;;
39674;SDS011;27790;50.840;4.386;2022-10-16T12:34:55;3.85;;;0.93;;
39674;SDS011;27790;50.840;4.386;2022-10-16T12:37:30;2.25;;;1.00;;
39674;SDS011;27790;50.840;4.386;2022-10-16T12:42:38;2.88;;;0.65;;
39674;SDS011;27790;50.840;4.386;2022-10-16T12:45:22;2.60;;;0.70;;
39674;SDS011;27790;50.840;4.386;2022-10-16T12:47:56;3.80;;;0.70;;
39674;SDS011;27790;50.840;4.386;2022-10-16T12:50:24;3.00;;;0.80;;
39674;SDS011;27790;50.840;4.386;2022-10-16T12:52:58;3.00;;;1.10;;
39674;SDS011;27790;50.840;4.386;2022-10-16T12:55:25;2.78;;;0.85;;
39674;SDS011;27790;50.840;4.386;2022-10-16T13:32:47;4.45;;;1.73;;
39674;SDS011;27790;50.840;4.386;2022-10-16T13:35:18;7.35;;;1.75;;
39674;SDS011;27790;50.840;4.386;2022-10-16T13:37:49;2.95;;;1.30;;
39674;SDS011;27790;50.840;4.386;2022-10-16T13:40:19;4.97;;;1.60;;
39674;SDS011;27790;50.840;4.386;2022-10-16T13:42:47;4.85;;;2.35;;
39674;SDS011;27790;50.840;4.386;2022-10-16T13:45:20;2.70;;;1.30;;
39674;SDS011;27790;50.840;4.386;2022-10-16T13:47:47;2.53;;;1.42;;
39674;SDS011;27790;50.840;4.386;2022-10-16T13:50:14;5.30;;;1.20;;
39674;SDS011;27790;50.840;4.386;2022-10-16T13:52:42;3.72;;;1.70;;
39674;SDS011;27790;50.840;4.386;2022-10-16T13:57:41;3.33;;;1.70;;
39674;SDS011;27790;50.840;4.386;2022-10-16T14:03:01;4.32;;;1.15;;
39674;SDS011;27790;50.840;4.386;2022-10-16T14:05:29;1.77;;;1.00;;
39674;SDS011;27790;50.840;4.386;2022-10-16T14:07:54;4.10;;;0.93;;
39674;SDS011;27790;50.840;4.386;2022-10-16T14:12:55;5.63;;;1.40;;
39674;SDS011;27790;50.840;4.386;2022-10-16T14:15:26;4.50;;;1.30;;
39674;SDS011;27790;50.840;4.386;2022-10-16T14:17:54;2.13;;;0.90;;
39674;SDS011;27790;50.840;4.386;2022-10-16T14:20:21;1.85;;;1.05;;
39674;SDS011;27790;50.840;4.386;2022-10-16T14:22:57;3.03;;;0.98;;
39674;SDS011;27790;50.840;4.386;2022-10-16T14:25:51;4.28;;;0.93;;
39674;SDS011;27790;50.840;4.386;2022-10-16T14:28:21;5.35;;;1.25;;
39674;SDS011;27790;50.840;4.386;2022-10-16T14:36:01;3.28;;;1.10;;
39674;SDS011;27790;50.840;4.386;2022-10-16T14:38:27;4.40;;;1.10;;
39674;SDS011;27790;50.840;4.386;2022-10-16T14:40:52;3.42;;;1.20;;
39674;SDS011;27790;50.840;4.386;2022-10-16T14:43:22;6.20;;;1.90;;
39674;SDS011;27790;50.840;4.386;2022-10-16T14:45:56;3.55;;;1.13;;
39674;SDS011;27790;50.840;4.386;2022-10-16T14:48:22;4.03;;;0.90;;
39674;SDS011;27790;50.840;4.386;2022-10-16T14:50:49;2.85;;;1.10;;
39674;SDS011;27790;50.840;4.386;2022-10-16T14:53:15;4.57;;;1.30;;
39674;SDS011;27790;50.840;4.386;2022-10-16T14:55:40;5.63;;;1.88;;
39674;SDS011;27790;50.840;4.386;2022-10-16T14:58:17;4.97;;;1.63;;
39674;SDS011;27790;50.840;4.386;2022-10-16T15:00:45;5.13;;;1.48;;
39674;SDS011;27790;50.840;4.386;2022-10-16T15:03:11;10.60;;;2.03;;
39674;SDS011;27790;50.840;4.386;2022-10-16T15:05:37;3.15;;;1.70;;
39674;SDS011;27790;50.840;4.386;2022-10-16T15:08:02;9.38;;;2.08;;
39674;SDS011;27790;50.840;4.386;2022-10-16T15:10:29;5.10;;;1.70;;
39674;SDS011;27790;50.840;4.386;2022-10-16T15:12:57;4.05;;;2.00;;
39674;SDS011;27790;50.840;4.386;2022-10-16T15:17:49;5.32;;;2.05;;
39674;SDS011;27790;50.840;4.386;2022-10-16T15:20:18;3.40;;;1.83;;
39674;SDS011;27790;50.840;4.386;2022-10-16T15:22:44;7.10;;;2.15;;
39674;SDS011;27790;50.840;4.386;2022-10-16T15:25:32;5.05;;;2.13;;
39674;SDS011;27790;50.840;4.386;2022-10-16T15:28:06;5.70;;;2.28;;
39674;SDS011;27790;50.840;4.386;2022-10-16T15:30:32;4.07;;;1.80;;
39674;SDS011;27790;50.840;4.386;2022-10-16T15:32:58;4.78;;;1.77;;
39674;SDS011;27790;50.840;4.386;2022-10-16T15:35:24;4.93;;;2.20;;
39674;SDS011;27790;50.840;4.386;2022-10-16T15:37:50;9.07;;;1.73;;
39674;SDS011;27790;50.840;4.386;2022-10-16T15:40:16;4.93;;;1.52;;
39674;SDS011;27790;50.840;4.386;2022-10-16T15:42:43;3.15;;;1.65;;
39674;SDS011;27790;50.840;4.386;2022-10-16T15:45:10;5.40;;;2.08;;
39674;SDS011;27790;50.840;4.386;2022-10-16T15:47:36;4.38;;;1.63;;
39674;SDS011;27790;50.840;4.386;2022-10-16T15:50:02;2.63;;;1.65;;
39674;SDS011;27790;50.840;4.386;2022-10-16T15:52:28;5.97;;;2.22;;
39674;SDS011;27790;50.840;4.386;2022-10-16T15:54:56;8.30;;;1.50;;
39674;SDS011;27790;50.840;4.386;2022-10-16T15:57:22;4.03;;;1.10;;
39674;SDS011;27790;50.840;4.386;2022-10-16T15:59:48;9.68;;;2.10;;
39674;SDS011;27790;50.840;4.386;2022-10-16T16:02:14;3.65;;;1.20;;
39674;SDS011;27790;50.840;4.386;2022-10-16T16:04:40;2.30;;;1.38;;
39674;SDS011;27790;50.840;4.386;2022-10-16T16:07:05;10.27;;;2.13;;
39674;SDS011;27790;50.840;4.386;2022-10-16T16:09:32;3.35;;;1.42;;
39674;SDS011;27790;50.840;4.386;2022-10-16T16:11:58;4.65;;;1.33;;
39674;SDS011;27790;50.840;4.386;2022-10-16T16:14:25;4.72;;;1.40;;
39674;SDS011;27790;50.840;4.386;2022-10-16T16:16:53;6.68;;;1.30;;
39674;SDS011;27790;50.840;4.386;2022-10-16T16:19:22;2.75;;;1.42;;
39674;SDS011;27790;50.840;4.386;2022-10-16T16:21:48;3.42;;;1.45;;
39674;SDS011;27790;50.840;4.386;2022-10-16T16:24:15;2.70;;;1.48;;
39674;SDS011;27790;50.840;4.386;2022-10-16T16:26:40;4.03;;;2.03;;
39674;SDS011;27790;50.840;4.386;2022-10-16T16:29:12;5.78;;;2.03;;
39674;SDS011;27790;50.840;4.386;2022-10-16T16:31:39;7.97;;;2.28;;
39674;SDS011;27790;50.840;4.386;2022-10-16T16:34:05;3.85;;;1.80;;
39674;SDS011;27790;50.840;4.386;2022-10-16T16:36:31;4.22;;;2.35;;
39674;SDS011;27790;50.840;4.386;2022-10-16T16:38:57;5.93;;;2.20;;
39674;SDS011;27790;50.840;4.386;2022-10-16T16:41:24;5.13;;;2.03;;
39674;SDS011;27790;50.840;4.386;2022-10-16T16:43:52;5.95;;;2.45;;
39674;SDS011;27790;50.840;4.386;2022-10-16T16:46:18;7.95;;;1.83;;
39674;SDS011;27790;50.840;4.386;2022-10-16T16:48:45;3.63;;;1.70;;
39674;SDS011;27790;50.840;4.386;2022-10-16T16:51:12;9.27;;;1.63;;
39674;SDS011;27790;50.840;4.386;2022-10-16T16:53:41;1.88;;;1.48;;
39674;SDS011;27790;50.840;4.386;2022-10-16T16:56:08;3.28;;;1.73;;
39674;SDS011;27790;50.840;4.386;2022-10-16T16:58:33;9.52;;;2.30;;
39674;SDS011;27790;50.840;4.386;2022-10-16T17:00:59;3.78;;;1.95;;
39674;SDS011;27790;50.840;4.386;2022-10-16T17:03:30;2.97;;;2.40;;
39674;SDS011;27790;50.840;4.386;2022-10-16T17:06:01;3.35;;;2.40;;
39674;SDS011;27790;50.840;4.386;2022-10-16T17:08:29;4.38;;;2.58;;
39674;SDS011;27790;50.840;4.386;2022-10-16T17:10:55;8.70;;;4.57;;
39674;SDS011;27790;50.840;4.386;2022-10-16T17:13:22;13.00;;;4.53;;
39674;SDS011;27790;50.840;4.386;2022-10-16T17:15:50;14.70;;;4.05;;
39674;SDS011;27790;50.840;4.386;2022-10-16T17:18:17;9.25;;;4.00;;
39674;SDS011;27790;50.840;4.386;2022-10-16T17:20:43;9.68;;;4.80;;
39674;SDS011;27790;50.840;4.386;2022-10-16T17:23:09;12.50;;;4.70;;
39674;SDS011;27790;50.840;4.386;2022-10-16T17:25:36;10.57;;;4.93;;
39674;SDS011;27790;50.840;4.386;2022-10-16T17:28:06;9.60;;;5.40;;
39674;SDS011;27790;50.840;4.386;2022-10-16T17:30:33;6.90;;;4.40;;
39674;SDS011;27790;50.840;4.386;2022-10-16T17:33:00;15.68;;;5.50;;
39674;SDS011;27790;50.840;4.386;2022-10-16T17:35:26;9.38;;;4.47;;
39674;SDS011;27790;50.840;4.386;2022-10-16T17:37:52;7.78;;;5.55;;
39674;SDS011;27790;50.840;4.386;2022-10-16T17:40:18;7.05;;;4.82;;
39674;SDS011;27790;50.840;4.386;2022-10-16T17:42:45;13.93;;;6.80;;
39674;SDS011;27790;50.840;4.386;2022-10-16T17:45:12;7.70;;;4.90;;
39674;SDS011;27790;50.840;4.386;2022-10-16T17:47:38;6.45;;;4.82;;
39674;SDS011;27790;50.840;4.386;2022-10-16T17:50:06;5.03;;;3.97;;
39674;SDS011;27790;50.840;4.386;2022-10-16T17:52:32;6.07;;;4.20;;
39674;SDS011;27790;50.840;4.386;2022-10-16T17:54:58;7.13;;;4.22;;
39674;SDS011;27790;50.840;4.386;2022-10-16T17:57:24;7.75;;;5.00;;
39674;SDS011;27790;50.840;4.386;2022-10-16T17:59:49;5.55;;;4.63;;
39674;SDS011;27790;50.840;4.386;2022-10-16T18:02:15;6.97;;;4.55;;
39674;SDS011;27790;50.840;4.386;2022-10-16T18:04:42;6.75;;;4.78;;
39674;SDS011;27790;50.840;4.386;2022-10-16T18:07:07;6.63;;;5.70;;
39674;SDS011;27790;50.840;4.386;2022-10-16T18:09:33;11.00;;;5.68;;
39674;SDS011;27790;50.840;4.386;2022-10-16T18:11:59;12.32;;;6.00;;
39674;SDS011;27790;50.840;4.386;2022-10-16T18:14:28;10.13;;;5.97;;
39674;SDS011;27790;50.840;4.386;2022-10-16T18:16:55;8.43;;;6.03;;
39674;SDS011;27790;50.840;4.386;2022-10-16T18:19:22;42.88;;;28.67;;
39674;SDS011;27790;50.840;4.386;2022-10-16T18:21:49;17.60;;;9.68;;
39674;SDS011;27790;50.840;4.386;2022-10-16T18:24:16;8.65;;;7.03;;
39674;SDS011;27790;50.840;4.386;2022-10-16T18:26:42;10.45;;;6.45;;
39674;SDS011;27790;50.840;4.386;2022-10-16T18:29:09;11.30;;;7.07;;
39674;SDS011;27790;50.840;4.386;2022-10-16T18:31:35;12.73;;;7.65;;
39674;SDS011;27790;50.840;4.386;2022-10-16T18:34:01;13.10;;;7.68;;
39674;SDS011;27790;50.840;4.386;2022-10-16T18:36:31;13.52;;;9.02;;
39674;SDS011;27790;50.840;4.386;2022-10-16T18:38:59;11.65;;;7.70;;
39674;SDS011;27790;50.840;4.386;2022-10-16T18:41:27;14.25;;;8.27;;
39674;SDS011;27790;50.840;4.386;2022-10-16T18:43:54;12.90;;;7.88;;
39674;SDS011;27790;50.840;4.386;2022-10-16T18:46:23;13.88;;;8.27;;
39674;SDS011;27790;50.840;4.386;2022-10-16T18:48:49;15.40;;;9.02;;
39674;SDS011;27790;50.840;4.386;2022-10-16T18:51:19;10.70;;;6.32;;
39674;SDS011;27790;50.840;4.386;2022-10-16T18:53:54;10.82;;;6.95;;
39674;SDS011;27790;50.840;4.386;2022-10-16T18:56:24;11.45;;;6.82;;
39674;SDS011;27790;50.840;4.386;2022-10-16T18:58:50;10.20;;;7.20;;